Time;durP1;ratioP1;P1;durP2;ratioP2;P2;SDS_P1;SDS_P2;PMS_P1;PMS_P2;Temp;Humidity;BMP_temperature;BMP_pressure;BME280_temperature;BME280_humidity;BME280_pressure;Samples;Min_cycle;Max_cycle;Signal;HPM_P1;HPM_P2
2021/10/05 00:00:08;;;;;;;2.50;2.30;;;11.10;99.90;;;;;;5016074;28;20132;-88
2021/10/05 00:02:34;;;;;;;2.75;2.55;;;11.10;99.90;;;;;;5033965;28;20056;-88
2021/10/05 00:05:02;;;;;;;2.80;2.38;;;11.00;99.90;;;;;;5032140;28;20113;-88
2021/10/05 00:07:28;;;;;;;2.40;2.20;;;11.00;99.90;;;;;;5027500;28;20453;-88
2021/10/05 00:09:55;;;;;;;3.85;2.28;;;11.10;99.90;;;;;;5016416;28;20081;-88
2021/10/05 00:12:23;;;;;;;2.63;2.42;;;11.10;99.90;;;;;;5016217;28;20077;-88
2021/10/05 00:14:50;;;;;;;2.92;2.72;;;11.10;99.90;;;;;;5032274;28;20483;-88
2021/10/05 00:17:21;;;;;;;3.30;2.45;;;11.10;99.90;;;;;;5015678;28;20132;-88
2021/10/05 00:19:48;;;;;;;2.53;2.42;;;11.10;99.90;;;;;;5016085;28;20053;-88
2021/10/05 00:22:15;;;;;;;2.38;2.17;;;11.10;99.90;;;;;;5015675;28;20053;-88
2021/10/05 00:24:42;;;;;;;2.85;2.47;;;11.10;99.90;;;;;;5015993;28;20052;-88
2021/10/05 00:27:09;;;;;;;3.30;2.78;;;11.10;99.90;;;;;;5032952;28;20051;-88
2021/10/05 00:29:36;;;;;;;5.65;2.40;;;11.10;99.90;;;;;;5015911;28;20414;-88
2021/10/05 00:32:04;;;;;;;2.60;2.40;;;11.10;99.90;;;;;;5016100;28;20437;-87
2021/10/05 00:34:31;;;;;;;3.78;2.75;;;11.10;99.90;;;;;;5032991;28;20045;-88
2021/10/05 00:36:58;;;;;;;3.28;2.97;;;11.10;99.90;;;;;;5015793;28;20107;-89
2021/10/05 00:39:26;;;;;;;3.50;2.70;;;11.10;99.90;;;;;;5034980;28;20295;-89
2021/10/05 00:41:55;;;;;;;4.40;2.95;;;11.10;99.90;;;;;;5019901;28;20189;-89
2021/10/05 00:44:29;;;;;;;5.20;3.30;;;11.10;99.90;;;;;;5019329;28;20124;-89
2021/10/05 00:47:00;;;;;;;4.15;3.70;;;10.90;99.90;;;;;;5037164;28;20045;-90
2021/10/05 00:49:26;;;;;;;3.85;3.03;;;10.80;99.90;;;;;;5020054;28;20055;-90
2021/10/05 00:51:54;;;;;;;3.30;3.00;;;10.80;99.90;;;;;;5019942;28;20489;-91
2021/10/05 00:54:22;;;;;;;3.17;2.97;;;10.90;99.90;;;;;;5019554;28;20057;-92
2021/10/05 00:56:49;;;;;;;3.10;2.90;;;10.80;99.90;;;;;;5019719;28;20088;-92
2021/10/05 00:59:16;;;;;;;3.22;3.03;;;10.90;99.90;;;;;;5019702;28;20045;-92
2021/10/05 01:01:43;;;;;;;3.22;3.03;;;10.90;99.90;;;;;;5019734;28;20057;-92
2021/10/05 01:04:10;;;;;;;6.90;3.42;;;10.90;99.90;;;;;;5036787;28;20049;-92
2021/10/05 01:06:45;;;;;;;3.53;3.22;;;10.90;99.90;;;;;;5036897;28;20045;-93
2021/10/05 01:09:13;;;;;;;3.35;2.88;;;10.90;99.90;;;;;;5019534;28;20081;-92
2021/10/05 01:11:39;;;;;;;4.95;3.15;;;10.90;99.90;;;;;;5019280;28;20054;-92
2021/10/05 01:14:06;;;;;;;3.47;3.17;;;10.90;99.90;;;;;;5019331;28;20049;-92
2021/10/05 01:16:33;;;;;;;4.38;2.90;;;10.90;99.90;;;;;;5019496;28;20086;-92
2021/10/05 01:19:00;;;;;;;3.60;3.30;;;10.90;99.90;;;;;;5019346;28;20049;-92
2021/10/05 01:21:27;;;;;;;2.78;2.63;;;11.00;99.90;;;;;;5019023;28;20056;-92
2021/10/05 01:23:54;;;;;;;3.10;2.90;;;11.00;99.90;;;;;;5040269;28;20093;-90
2021/10/05 01:26:20;;;;;;;3.60;3.00;;;11.00;99.90;;;;;;5035235;28;20125;-93
2021/10/05 01:28:47;;;;;;;2.83;2.63;;;11.00;99.90;;;;;;5018975;28;20045;-93
2021/10/05 01:31:14;;;;;;;3.30;2.88;;;10.90;99.90;;;;;;5018797;28;20056;-93
2021/10/05 01:33:41;;;;;;;3.17;2.97;;;10.90;99.90;;;;;;5018878;28;20053;-92
2021/10/05 01:36:09;;;;;;;5.10;2.90;;;10.90;99.90;;;;;;5018504;28;20060;-92
2021/10/05 01:38:35;;;;;;;4.55;3.17;;;10.90;99.90;;;;;;5018882;28;20052;-92
2021/10/05 01:41:02;;;;;;;3.05;2.85;;;10.90;99.90;;;;;;5036238;28;20055;-91
2021/10/05 01:43:29;;;;;;;3.22;2.92;;;10.90;99.90;;;;;;5018510;28;20462;-91
2021/10/05 01:45:58;;;;;;;3.90;3.10;;;10.90;99.90;;;;;;5022118;28;20057;-91
2021/10/05 01:48:24;;;;;;;3.70;3.35;;;10.90;99.90;;;;;;5035971;28;20045;-91
2021/10/05 01:50:51;;;;;;;4.65;2.90;;;10.90;99.90;;;;;;5018586;28;20055;-90
2021/10/05 01:53:18;;;;;;;3.30;3.10;;;10.90;99.90;;;;;;5035637;28;20052;-91
2021/10/05 01:55:44;;;;;;;4.82;4.35;;;11.00;99.90;;;;;;5018227;28;20060;-92
2021/10/05 01:58:11;;;;;;;5.55;5.05;;;10.90;99.90;;;;;;5035771;28;20052;-92
2021/10/05 02:00:38;;;;;;;4.93;4.47;;;10.90;99.90;;;;;;5019011;28;20059;-91
2021/10/05 02:03:05;;;;;;;3.92;3.63;;;10.90;99.90;;;;;;5018130;28;20069;-91
2021/10/05 02:05:32;;;;;;;4.45;4.15;;;10.90;99.90;;;;;;5017936;28;20049;-91
2021/10/05 02:07:59;;;;;;;4.72;4.32;;;10.90;99.90;;;;;;5018397;28;20144;-90
2021/10/05 02:10:26;;;;;;;5.85;5.25;;;10.90;99.90;;;;;;5018489;28;20091;-90
2021/10/05 02:12:52;;;;;;;7.15;6.45;;;10.90;99.90;;;;;;5018255;28;20046;-90
2021/10/05 02:15:19;;;;;;;6.78;6.07;;;10.90;99.90;;;;;;5017910;28;20136;-90
2021/10/05 02:17:46;;;;;;;6.95;6.25;;;10.80;99.90;;;;;;5035368;28;20050;-90
2021/10/05 02:20:13;;;;;;;9.50;5.85;;;10.90;99.90;;;;;;5017877;28;20053;-89
2021/10/05 02:22:40;;;;;;;5.72;5.22;;;11.00;99.90;;;;;;5017968;28;20053;-90
2021/10/05 02:25:08;;;;;;;16.17;6.45;;;10.90;99.90;;;;;;5017690;28;20053;-90
2021/10/05 02:27:35;;;;;;;4.97;4.55;;;10.90;99.90;;;;;;5017794;28;20052;-90
2021/10/05 02:30:04;;;;;;;8.38;5.85;;;10.90;99.90;;;;;;5034922;28;20169;-91
2021/10/05 02:32:30;;;;;;;7.88;6.18;;;10.90;99.90;;;;;;5017670;28;20421;-90
2021/10/05 02:34:57;;;;;;;7.10;6.32;;;10.90;99.90;;;;;;5017527;28;20330;-90
2021/10/05 02:37:29;;;;;;;8.32;7.13;;;10.90;99.90;;;;;;5017870;28;20057;-89
2021/10/05 02:39:57;;;;;;;7.30;6.63;;;11.00;99.90;;;;;;5019044;28;20052;-90
2021/10/05 02:42:25;;;;;;;11.05;9.38;;;11.00;99.90;;;;;;5056357;28;20057;-89
2021/10/05 02:44:55;;;;;;;11.80;8.30;;;11.00;99.90;;;;;;5031979;28;20062;-90
2021/10/05 02:47:23;;;;;;;9.20;8.30;;;11.00;99.90;;;;;;5017517;28;20063;-90
2021/10/05 02:49:50;;;;;;;13.15;9.93;;;11.00;99.90;;;;;;5034931;28;20592;-89
2021/10/05 02:52:20;;;;;;;11.13;8.98;;;11.10;99.90;;;;;;5017224;28;20111;-90
2021/10/05 02:54:48;;;;;;;9.68;7.88;;;11.00;99.90;;;;;;5034596;28;20049;-90
2021/10/05 02:57:17;;;;;;;11.43;8.50;;;11.00;99.90;;;;;;5016884;28;20498;-89
2021/10/05 02:59:45;;;;;;;9.80;8.80;;;11.00;99.90;;;;;;5034492;28;20144;-89
2021/10/05 03:02:12;;;;;;;10.07;8.68;;;11.00;99.90;;;;;;5016892;28;20132;-89
2021/10/05 03:04:40;;;;;;;10.88;8.30;;;11.10;99.90;;;;;;5034579;28;20079;-89
2021/10/05 03:07:07;;;;;;;11.55;8.13;;;11.10;99.90;;;;;;5034208;28;20046;-89
2021/10/05 03:09:35;;;;;;;13.45;10.15;;;11.10;99.90;;;;;;5016988;28;20050;-89
2021/10/05 03:12:03;;;;;;;13.70;9.13;;;11.10;99.90;;;;;;5016906;28;20049;-88
2021/10/05 03:14:30;;;;;;;10.57;8.05;;;11.00;99.90;;;;;;5034337;28;20041;-89
2021/10/05 03:16:56;;;;;;;10.20;8.10;;;11.00;99.90;;;;;;5016825;28;20064;-89
2021/10/05 03:19:23;;;;;;;14.30;10.75;;;11.10;99.90;;;;;;5016929;28;20068;-88
2021/10/05 03:21:50;;;;;;;14.10;10.10;;;11.00;99.90;;;;;;5017199;28;20048;-89
2021/10/05 03:24:17;;;;;;;15.18;10.07;;;11.00;99.90;;;;;;5016745;28;20068;-89
2021/10/05 03:26:44;;;;;;;14.77;10.52;;;11.00;99.90;;;;;;5016794;28;20059;-88
2021/10/05 03:29:13;;;;;;;12.63;10.55;;;10.90;99.90;;;;;;5016822;28;20081;-87
2021/10/05 03:31:39;;;;;;;14.48;10.82;;;11.00;99.90;;;;;;5016484;28;20049;-87
2021/10/05 03:34:06;;;;;;;15.30;10.65;;;11.00;99.90;;;;;;5016726;28;20097;-87
2021/10/05 03:36:33;;;;;;;12.75;9.98;;;11.00;99.90;;;;;;5034018;28;20144;-87
2021/10/05 03:39:00;;;;;;;13.57;9.63;;;11.00;99.90;;;;;;5016745;28;20486;-87
2021/10/05 03:41:30;;;;;;;13.18;10.50;;;10.90;99.90;;;;;;5016735;28;20059;-87
2021/10/05 03:43:58;;;;;;;18.20;11.55;;;10.90;99.90;;;;;;5016362;28;20533;-86
2021/10/05 03:46:25;;;;;;;15.90;11.02;;;11.00;99.90;;;;;;5016730;28;20095;-87
2021/10/05 03:48:52;;;;;;;16.92;11.27;;;11.00;99.90;;;;;;5016633;28;20045;-87
2021/10/05 03:51:19;;;;;;;15.50;10.73;;;11.00;99.90;;;;;;5016762;28;20071;-87
2021/10/05 03:53:45;;;;;;;13.50;9.93;;;11.00;99.90;;;;;;5017062;28;20068;-87
2021/10/05 03:56:12;;;;;;;16.25;11.32;;;11.10;99.90;;;;;;5016258;28;20053;-87
2021/10/05 03:58:39;;;;;;;13.55;9.65;;;11.00;99.90;;;;;;5018265;28;20055;-87
2021/10/05 04:01:06;;;;;;;12.70;10.10;;;11.00;99.90;;;;;;5036052;28;20118;-87
2021/10/05 04:03:33;;;;;;;12.05;10.23;;;11.00;99.90;;;;;;5037458;28;20052;-87
2021/10/05 04:06:00;;;;;;;12.68;10.23;;;11.00;99.90;;;;;;5015827;28;20511;-86
2021/10/05 04:08:28;;;;;;;12.75;9.68;;;11.00;99.90;;;;;;5015556;28;20051;-87
2021/10/05 04:10:54;;;;;;;13.65;10.32;;;10.90;99.90;;;;;;5033628;28;20132;-86
2021/10/05 04:13:21;;;;;;;13.35;9.70;;;11.10;99.90;;;;;;5032252;28;20050;-87
2021/10/05 04:15:48;;;;;;;15.57;10.85;;;11.00;99.90;;;;;;5033121;28;20128;-87
2021/10/05 04:18:15;;;;;;;15.48;10.52;;;11.00;99.90;;;;;;5017700;28;20115;-87
2021/10/05 04:20:42;;;;;;;11.75;9.35;;;11.00;99.90;;;;;;5016232;28;20073;-86
2021/10/05 04:23:08;;;;;;;14.85;9.85;;;11.00;99.90;;;;;;5016138;28;20245;-87
2021/10/05 04:25:35;;;;;;;14.75;9.70;;;11.00;99.90;;;;;;5016470;28;20049;-87
2021/10/05 04:28:02;;;;;;;17.27;11.25;;;11.00;99.90;;;;;;5033611;28;20417;-87
2021/10/05 04:30:29;;;;;;;13.57;10.25;;;11.00;99.90;;;;;;5015940;28;20052;-87
2021/10/05 04:32:56;;;;;;;13.65;10.50;;;11.00;99.90;;;;;;5033464;28;20061;-86
2021/10/05 04:35:23;;;;;;;17.67;10.57;;;11.00;99.90;;;;;;5014486;28;20405;-86
2021/10/05 04:37:51;;;;;;;14.20;9.98;;;11.00;99.90;;;;;;5015494;28;20117;-87
2021/10/05 04:40:18;;;;;;;15.23;10.57;;;11.10;99.90;;;;;;5015876;28;20051;-87
2021/10/05 04:42:45;;;;;;;14.20;10.00;;;11.10;99.90;;;;;;5033156;28;20058;-87
2021/10/05 04:45:12;;;;;;;13.50;9.98;;;11.10;99.90;;;;;;5015459;28;20053;-87
2021/10/05 04:47:38;;;;;;;15.73;10.52;;;11.10;99.90;;;;;;5032386;28;20049;-87
2021/10/05 04:50:08;;;;;;;15.40;10.60;;;11.10;99.90;;;;;;5033268;28;20045;-86
2021/10/05 04:52:36;;;;;;;14.30;10.88;;;11.10;99.90;;;;;;5033135;28;20063;-87
2021/10/05 04:55:04;;;;;;;14.68;10.68;;;11.10;99.90;;;;;;5015667;28;20065;-88
2021/10/05 04:57:31;;;;;;;13.63;9.82;;;11.00;99.90;;;;;;5015690;28;20050;-88
2021/10/05 04:59:58;;;;;;;11.70;9.00;;;10.90;99.90;;;;;;5016518;28;20122;-87
2021/10/05 05:02:25;;;;;;;14.73;9.90;;;11.00;99.90;;;;;;5015701;28;20049;-87
2021/10/05 05:04:52;;;;;;;14.05;9.27;;;11.00;99.90;;;;;;5015671;28;20100;-87
2021/10/05 05:07:18;;;;;;;12.65;8.52;;;11.10;99.90;;;;;;5015659;28;20151;-87
2021/10/05 05:09:45;;;;;;;10.02;8.30;;;11.10;99.90;;;;;;5033633;28;20136;-88
2021/10/05 05:12:12;;;;;;;9.55;8.10;;;11.10;99.90;;;;;;5016070;28;20493;-88
2021/10/05 05:14:39;;;;;;;9.70;8.13;;;11.10;99.90;;;;;;5033429;28;20057;-88
2021/10/05 05:17:06;;;;;;;11.57;7.88;;;11.10;99.90;;;;;;5019817;28;20049;-88
2021/10/05 05:19:33;;;;;;;11.82;8.05;;;11.10;99.90;;;;;;5033849;28;20113;-87
2021/10/05 05:21:59;;;;;;;11.73;7.40;;;11.10;99.90;;;;;;5035004;28;20132;-87
2021/10/05 05:24:27;;;;;;;11.18;8.30;;;11.10;99.90;;;;;;5015701;28;20046;-88
2021/10/05 05:26:54;;;;;;;10.70;8.40;;;11.10;99.90;;;;;;5036553;28;20053;-88
2021/10/05 05:29:21;;;;;;;10.43;8.50;;;11.10;99.90;;;;;;5018597;28;20484;-88
2021/10/05 05:31:48;;;;;;;13.60;9.52;;;11.10;99.90;;;;;;5018583;28;20049;-88
2021/10/05 05:34:15;;;;;;;11.68;8.90;;;11.10;99.90;;;;;;5018532;28;20045;-87
2021/10/05 05:36:42;;;;;;;11.57;8.80;;;11.10;99.90;;;;;;5035617;28;20057;-87
2021/10/05 05:39:09;;;;;;;12.85;8.15;;;11.10;99.90;;;;;;5018398;28;20132;-87
2021/10/05 05:41:36;;;;;;;12.30;8.45;;;11.00;99.90;;;;;;5018445;28;20053;-87
2021/10/05 05:44:03;;;;;;;14.15;8.50;;;10.90;99.90;;;;;;5018180;28;20058;-87
2021/10/05 05:46:29;;;;;;;12.68;8.13;;;10.90;99.90;;;;;;5018118;28;20512;-88
2021/10/05 05:48:56;;;;;;;13.57;9.38;;;10.90;99.90;;;;;;5034895;28;20056;-88
2021/10/05 05:51:23;;;;;;;14.55;7.97;;;10.90;99.90;;;;;;5035605;28;20045;-87
2021/10/05 05:53:50;;;;;;;9.30;7.15;;;10.90;99.90;;;;;;5018289;28;20081;-87
2021/10/05 05:56:16;;;;;;;8.52;6.70;;;10.90;99.90;;;;;;5035718;28;20059;-87
2021/10/05 05:58:43;;;;;;;11.30;7.22;;;10.90;99.90;;;;;;5018176;28;20049;-87
2021/10/05 06:01:11;;;;;;;14.88;8.02;;;11.00;99.90;;;;;;5018039;28;20059;-87
2021/10/05 06:03:38;;;;;;;16.67;9.32;;;10.90;99.90;;;;;;5018390;28;20057;-88
2021/10/05 06:06:05;;;;;;;17.48;9.73;;;10.80;99.90;;;;;;5018243;28;20441;-87
2021/10/05 06:08:32;;;;;;;19.85;11.05;;;10.70;99.90;;;;;;5018262;28;20081;-88
2021/10/05 06:10:59;;;;;;;20.88;9.48;;;10.70;99.90;;;;;;5035514;28;20053;-88
2021/10/05 06:13:26;;;;;;;14.77;9.25;;;10.70;99.90;;;;;;5035204;28;20258;-87
2021/10/05 06:15:53;;;;;;;15.00;9.23;;;10.90;99.90;;;;;;5017660;28;20049;-89
2021/10/05 06:18:20;;;;;;;14.15;9.68;;;10.90;99.90;;;;;;5018172;28;20092;-88
2021/10/05 06:20:47;;;;;;;15.25;8.85;;;10.90;99.90;;;;;;5017965;28;20135;-88
2021/10/05 06:23:14;;;;;;;21.75;10.18;;;10.90;99.90;;;;;;5035026;28;20049;-87
2021/10/05 06:25:42;;;;;;;14.43;8.82;;;10.90;99.90;;;;;;5017736;28;20510;-88
2021/10/05 06:28:09;;;;;;;22.35;11.57;;;10.90;99.90;;;;;;5034285;28;20505;-89
2021/10/05 06:30:37;;;;;;;16.17;9.15;;;10.90;99.90;;;;;;5035159;28;20508;-89
2021/10/05 06:33:04;;;;;;;23.70;13.13;;;10.90;99.90;;;;;;5017832;28;20056;-88
2021/10/05 06:35:32;;;;;;;21.15;13.60;;;10.90;99.90;;;;;;5023354;28;20056;-88
2021/10/05 06:38:00;;;;;;;18.30;12.05;;;11.00;99.90;;;;;;5030155;28;20240;-88
2021/10/05 06:40:33;;;;;;;24.52;11.98;;;11.00;99.90;;;;;;5017981;28;20053;-88
2021/10/05 06:43:00;;;;;;;55.03;42.03;;;11.00;99.90;;;;;;5016909;28;20129;-86
2021/10/05 06:45:28;;;;;;;23.35;15.75;;;11.00;99.90;;;;;;5016815;28;20057;-87
2021/10/05 06:47:55;;;;;;;18.58;11.05;;;11.10;99.90;;;;;;5033455;28;20506;-89
2021/10/05 06:50:22;;;;;;;17.70;11.32;;;11.10;99.90;;;;;;5017294;28;20056;-87
2021/10/05 06:52:49;;;;;;;16.20;10.43;;;11.20;99.90;;;;;;5034392;28;20053;-88
2021/10/05 06:55:16;;;;;;;12.50;8.00;;;11.20;99.90;;;;;;5034536;28;20052;-87
2021/10/05 06:57:43;;;;;;;12.18;7.97;;;11.20;99.90;;;;;;5017274;28;20056;-88
2021/10/05 07:00:13;;;;;;;14.10;8.88;;;11.30;99.90;;;;;;5017324;28;20049;-88
2021/10/05 07:02:41;;;;;;;12.38;7.50;;;11.20;99.90;;;;;;5017533;28;20045;-88
2021/10/05 07:05:09;;;;;;;14.60;12.13;;;11.10;99.90;;;;;;5016832;28;20049;-88
2021/10/05 07:07:41;;;;;;;17.02;11.95;;;11.20;99.90;;;;;;5016691;28;20513;-87
2021/10/05 07:10:09;;;;;;;11.82;8.65;;;11.10;99.90;;;;;;5016907;28;20502;-88
2021/10/05 07:12:36;;;;;;;10.65;7.30;;;11.20;99.90;;;;;;5017125;28;20096;-88
2021/10/05 07:15:04;;;;;;;13.77;9.50;;;11.30;99.90;;;;;;5016816;28;20049;-89
2021/10/05 07:17:31;;;;;;;15.70;10.80;;;11.20;99.90;;;;;;5016774;28;20053;-88
2021/10/05 07:19:59;;;;;;;16.65;11.90;;;11.20;99.90;;;;;;5016980;28;20056;-88
2021/10/05 07:22:26;;;;;;;15.82;11.20;;;11.30;99.90;;;;;;5016888;28;20414;-88
2021/10/05 07:24:53;;;;;;;17.10;11.00;;;11.30;99.90;;;;;;5033815;28;20041;-88
2021/10/05 07:27:20;;;;;;;12.23;8.32;;;11.30;99.90;;;;;;5033905;28;20479;-88
2021/10/05 07:29:47;;;;;;;13.20;8.20;;;11.40;99.90;;;;;;5034115;28;20046;-89
2021/10/05 07:32:14;;;;;;;11.02;8.38;;;11.40;99.90;;;;;;5016769;28;20057;-89
2021/10/05 07:34:42;;;;;;;11.52;7.82;;;11.40;99.90;;;;;;5016496;28;20498;-89
2021/10/05 07:37:10;;;;;;;11.32;8.20;;;11.50;99.90;;;;;;5016183;28;20128;-88
2021/10/05 07:39:37;;;;;;;11.02;7.93;;;11.50;99.90;;;;;;5016379;28;20050;-88
2021/10/05 07:42:05;;;;;;;13.60;7.47;;;11.60;99.90;;;;;;5016433;28;20053;-88
2021/10/05 07:44:33;;;;;;;9.40;7.43;;;11.70;99.90;;;;;;5016305;28;20085;-88
2021/10/05 07:47:01;;;;;;;10.70;7.15;;;11.70;99.90;;;;;;5032519;28;20056;-89
2021/10/05 07:49:28;;;;;;;6.30;5.53;;;11.60;99.90;;;;;;5033466;28;20140;-89
2021/10/05 07:51:54;;;;;;;11.38;8.43;;;11.60;99.90;;;;;;5033787;28;20482;-89
2021/10/05 07:54:21;;;;;;;6.07;5.47;;;11.60;99.90;;;;;;5020294;28;20053;-88
2021/10/05 07:56:48;;;;;;;7.18;6.43;;;11.60;99.90;;;;;;5028994;28;20128;-89
2021/10/05 07:59:14;;;;;;;11.52;7.72;;;11.60;99.90;;;;;;5016912;28;20077;-89
2021/10/05 08:01:48;;;;;;;5.80;5.30;;;11.70;99.90;;;;;;5033633;28;20084;-89
2021/10/05 08:04:15;;;;;;;4.80;4.40;;;11.70;99.90;;;;;;5016384;28;20053;-87
2021/10/05 08:06:42;;;;;;;5.00;4.60;;;11.70;99.90;;;;;;5016061;28;20049;-87
2021/10/05 08:09:09;;;;;;;11.38;9.15;;;11.70;99.90;;;;;;5016048;28;20050;-89
2021/10/05 08:11:36;;;;;;;14.40;9.45;;;11.70;99.90;;;;;;5033233;28;20132;-89
2021/10/05 08:14:03;;;;;;;7.88;6.10;;;11.70;99.90;;;;;;5016222;28;20418;-89
2021/10/05 08:16:30;;;;;;;6.20;5.53;;;11.70;99.90;;;;;;5015612;28;20049;-89
2021/10/05 08:18:58;;;;;;;8.48;6.13;;;11.60;99.90;;;;;;5033359;28;20057;-89
2021/10/05 08:21:25;;;;;;;6.78;4.95;;;11.60;99.90;;;;;;5015691;28;20046;-89
2021/10/05 08:23:52;;;;;;;7.15;4.13;;;11.70;99.90;;;;;;5014875;28;20045;-88
2021/10/05 08:26:20;;;;;;;4.45;4.07;;;11.70;99.90;;;;;;5016016;28;20409;-88
2021/10/05 08:28:48;;;;;;;6.55;4.82;;;11.70;99.90;;;;;;5033246;28;20145;-88
2021/10/05 08:31:18;;;;;;;3.97;3.67;;;11.70;99.90;;;;;;5033163;28;20050;-88
2021/10/05 08:33:46;;;;;;;4.65;3.00;;;11.70;99.90;;;;;;5015816;28;20045;-88
2021/10/05 08:36:13;;;;;;;3.65;2.60;;;11.70;99.90;;;;;;5033229;28;20046;-88
2021/10/05 08:38:40;;;;;;;2.22;2.03;;;11.70;99.90;;;;;;5016053;28;20068;-89
2021/10/05 08:41:07;;;;;;;2.40;2.20;;;11.80;99.90;;;;;;5015897;28;20465;-89
2021/10/05 08:43:34;;;;;;;2.47;2.38;;;11.80;99.90;;;;;;5015567;28;20061;-89
2021/10/05 08:46:03;;;;;;;3.20;3.00;;;11.90;99.90;;;;;;5015658;28;20048;-89
2021/10/05 08:48:32;;;;;;;2.90;2.70;;;11.90;99.90;;;;;;5016039;28;20100;-89
2021/10/05 08:51:00;;;;;;;2.42;2.33;;;11.90;99.90;;;;;;5015738;28;20428;-88
2021/10/05 08:53:28;;;;;;;2.65;2.00;;;11.90;99.90;;;;;;5015790;28;20144;-88
2021/10/05 08:55:55;;;;;;;2.58;2.38;;;11.80;99.90;;;;;;5031921;28;20136;-88
2021/10/05 08:58:22;;;;;;;3.22;2.65;;;11.80;99.90;;;;;;5032999;28;20135;-88
2021/10/05 09:00:49;;;;;;;4.05;3.63;;;11.80;99.90;;;;;;5018105;28;20056;-88
2021/10/05 09:03:24;;;;;;;3.30;3.10;;;11.90;99.90;;;;;;5019326;28;20088;-88
2021/10/05 09:05:51;;;;;;;5.53;4.43;;;12.00;99.90;;;;;;5036701;28;20057;-88
2021/10/05 09:08:28;;;;;;;4.30;3.88;;;11.90;99.90;;;;;;5019372;28;20045;-88
2021/10/05 09:11:02;;;;;;;20.30;4.68;;;12.00;99.90;;;;;;5019536;28;20137;-88
2021/10/05 09:13:35;;;;;;;8.65;4.25;;;12.00;99.90;;;;;;5027557;28;20077;-89
2021/10/05 09:16:02;;;;;;;19.65;5.97;;;12.10;99.90;;;;;;5026066;28;20049;-89
2021/10/05 09:18:29;;;;;;;14.20;5.60;;;12.00;99.90;;;;;;5018900;28;20140;-88
2021/10/05 09:20:57;;;;;;;9.43;6.25;;;12.00;99.90;;;;;;5036644;28;20048;-89
2021/10/05 09:23:24;;;;;;;10.27;6.20;;;12.00;99.90;;;;;;5019238;28;20132;-89
2021/10/05 09:25:50;;;;;;;7.07;5.40;;;12.00;99.90;;;;;;5019102;28;20049;-89
2021/10/05 09:28:24;;;;;;;7.88;5.47;;;12.00;99.90;;;;;;5036580;28;20049;-89
2021/10/05 09:30:58;;;;;;;51.15;33.75;;;12.00;99.90;;;;;;5019116;28;20409;-89
2021/10/05 09:33:25;;;;;;;57.63;46.65;;;11.90;99.90;;;;;;5018804;28;20056;-89
2021/10/05 09:35:52;;;;;;;47.20;39.90;;;11.90;99.90;;;;;;5018503;28;20148;-89
2021/10/05 09:38:24;;;;;;;11.20;9.20;;;11.90;99.90;;;;;;5018725;28;20045;-89
2021/10/05 09:41:07;;;;;;;14.80;9.80;;;11.90;99.90;;;;;;5018809;28;20045;-89
2021/10/05 09:43:35;;;;;;;70.35;44.90;;;11.90;99.90;;;;;;5018646;28;20494;-89
2021/10/05 09:46:08;;;;;;;176.73;102.75;;;12.00;99.90;;;;;;5018565;28;20049;-89
2021/10/05 09:48:35;;;;;;;26.00;17.33;;;12.10;99.90;;;;;;5018768;28;20133;-89
2021/10/05 09:51:15;;;;;;;7.07;5.88;;;12.10;99.90;;;;;;5035966;28;20045;-89
2021/10/05 09:53:42;;;;;;;24.42;19.75;;;12.10;99.90;;;;;;5018730;28;20112;-88
2021/10/05 09:56:12;;;;;;;32.88;28.08;;;12.20;99.90;;;;;;5018466;28;20069;-89
2021/10/05 09:58:40;;;;;;;19.33;17.33;;;12.30;99.90;;;;;;5035500;28;20064;-89
2021/10/05 10:01:06;;;;;;;11.23;10.18;;;12.40;99.90;;;;;;5018364;28;20052;-89
2021/10/05 10:03:36;;;;;;;3.72;3.42;;;12.50;99.90;;;;;;5035637;28;20112;-89
2021/10/05 10:06:03;;;;;;;3.78;3.58;;;12.50;99.90;;;;;;5018115;28;20053;-89
2021/10/05 10:08:34;;;;;;;6.50;6.00;;;12.50;99.90;;;;;;5018223;28;20091;-89
2021/10/05 10:11:01;;;;;;;6.20;5.70;;;12.50;99.90;;;;;;5034574;28;20049;-89
2021/10/05 10:13:28;;;;;;;3.10;2.83;;;12.50;99.90;;;;;;5017559;28;20160;-89
2021/10/05 10:15:59;;;;;;;4.35;3.95;;;12.60;99.90;;;;;;5017938;28;20052;-89
2021/10/05 10:18:26;;;;;;;2.38;2.28;;;12.60;99.90;;;;;;5018171;28;20053;-89
2021/10/05 10:21:02;;;;;;;6.40;5.80;;;12.60;99.90;;;;;;5018004;28;20067;-88
2021/10/05 10:23:30;;;;;;;2.50;2.25;;;12.60;99.90;;;;;;5017827;28;20064;-89
2021/10/05 10:26:03;;;;;;;3.83;1.92;;;12.70;99.90;;;;;;5017764;28;20049;-89
2021/10/05 10:28:37;;;;;;;9.63;3.22;;;12.70;99.90;;;;;;5018406;28;20046;-89
2021/10/05 10:31:07;;;;;;;16.15;9.80;;;12.70;99.90;;;;;;5018793;28;20075;-89
2021/10/05 10:33:51;;;;;;;9.52;5.97;;;12.70;99.90;;;;;;5046569;28;20041;-89
2021/10/05 10:36:32;;;;;;;16.40;8.25;;;12.80;99.90;;;;;;5018950;28;20060;-88
2021/10/05 10:39:19;;;;;;;14.07;4.95;;;12.90;99.90;;;;;;5034701;28;20053;-88
2021/10/05 10:41:57;;;;;;;20.70;10.70;;;13.20;99.90;;;;;;5017600;28;20046;-89
2021/10/05 10:44:39;;;;;;;8.05;3.83;;;13.80;99.90;;;;;;5017524;28;20494;-87
2021/10/05 10:47:10;;;;;;;2.70;1.40;;;14.10;99.90;;;;;;5017305;28;20132;-88
2021/10/05 10:49:38;;;;;;;107.47;62.72;;;13.90;99.90;;;;;;5034731;28;20059;-89
2021/10/05 10:52:06;;;;;;;79.47;53.20;;;13.90;99.90;;;;;;5017497;28;20049;-89
2021/10/05 10:54:33;;;;;;;12.25;7.75;;;13.80;99.90;;;;;;5019265;28;20041;-89
2021/10/05 10:57:05;;;;;;;8.82;6.05;;;13.80;99.90;;;;;;5017059;28;20063;-88
2021/10/05 10:59:33;;;;;;;4.90;3.42;;;14.00;99.90;;;;;;5017474;28;20080;-88
2021/10/05 11:02:03;;;;;;;5.30;2.42;;;14.20;99.90;;;;;;5017109;28;20136;-86
2021/10/05 11:04:31;;;;;;;5.80;5.22;;;14.40;99.90;;;;;;5017234;28;20085;-86
2021/10/05 11:06:59;;;;;;;6.47;3.22;;;14.70;99.90;;;;;;5017080;28;20099;-88
2021/10/05 11:09:31;;;;;;;2.67;2.05;;;14.90;99.90;;;;;;5035355;28;20479;-86
2021/10/05 11:11:59;;;;;;;3.95;1.80;;;14.70;99.90;;;;;;5034355;28;20049;-86
2021/10/05 11:14:38;;;;;;;2.80;1.95;;;14.80;99.90;;;;;;5017410;28;20084;-88
2021/10/05 11:17:08;;;;;;;3.08;2.20;;;14.60;99.90;;;;;;5034017;28;20077;-88
2021/10/05 11:19:41;;;;;;;2.42;1.50;;;14.80;99.90;;;;;;5016657;28;20096;-88
2021/10/05 11:22:15;;;;;;;1.73;1.23;;;14.60;99.90;;;;;;5017046;28;20045;-87
2021/10/05 11:24:45;;;;;;;4.05;3.67;;;14.50;99.90;;;;;;5033087;28;20140;-87
2021/10/05 11:27:18;;;;;;;2.47;1.40;;;14.40;99.90;;;;;;5016695;28;20085;-87
2021/10/05 11:29:46;;;;;;;3.60;1.55;;;14.50;99.90;;;;;;5017221;28;20057;-88
2021/10/05 11:32:18;;;;;;;3.20;2.28;;;14.40;99.90;;;;;;5017375;28;20045;-88
2021/10/05 11:34:48;;;;;;;4.13;1.33;;;14.30;99.90;;;;;;5016838;28;20058;-88
2021/10/05 11:37:18;;;;;;;2.85;1.33;;;14.30;99.90;;;;;;5016695;28;20071;-88
2021/10/05 11:39:47;;;;;;;1.85;1.00;;;14.20;99.90;;;;;;5016975;28;20072;-88
2021/10/05 11:42:19;;;;;;;1.38;1.08;;;14.20;99.90;;;;;;5033591;28;20553;-89
2021/10/05 11:44:55;;;;;;;3.22;1.88;;;14.10;99.90;;;;;;5016934;28;20413;-88
2021/10/05 11:47:25;;;;;;;1.92;1.42;;;14.10;99.90;;;;;;5016733;28;20055;-87
2021/10/05 11:50:03;;;;;;;3.03;1.45;;;14.10;99.90;;;;;;5019408;28;20473;-88
2021/10/05 11:52:35;;;;;;;2.67;1.40;;;14.00;99.90;;;;;;5023922;28;20136;-88
2021/10/05 11:55:04;;;;;;;2.05;1.15;;;14.10;99.90;;;;;;5016631;28;20051;-88
2021/10/05 11:57:34;;;;;;;3.65;2.72;;;14.10;99.90;;;;;;5033775;28;20137;-88
2021/10/05 12:00:07;;;;;;;4.35;3.03;;;13.90;99.90;;;;;;5016711;28;20053;-88
2021/10/05 12:02:40;;;;;;;2.90;2.17;;;14.00;99.90;;;;;;5017104;28;20046;-88
2021/10/05 12:05:24;;;;;;;2.15;1.95;;;14.00;99.90;;;;;;5017288;28;20103;-88
2021/10/05 12:07:51;;;;;;;3.22;1.50;;;14.10;99.90;;;;;;5016717;28;20045;-88
2021/10/05 12:10:18;;;;;;;1.20;1.00;;;14.20;99.90;;;;;;5016416;28;20136;-88
2021/10/05 12:12:46;;;;;;;1.35;1.25;;;14.30;99.90;;;;;;5033785;28;20136;-87
2021/10/05 12:15:20;;;;;;;1.83;1.27;;;14.40;99.90;;;;;;5016233;28;20053;-88
2021/10/05 12:18:07;;;;;;;2.33;2.00;;;14.60;99.90;;;;;;5033730;28;20073;-87
2021/10/05 12:21:05;;;;;;;2.53;1.52;;;14.60;99.90;;;;;;5019332;28;20456;-88
2021/10/05 12:23:33;;;;;;;1.50;1.40;;;14.70;99.90;;;;;;5016286;28;20133;-87
2021/10/05 12:26:11;;;;;;;1.98;1.70;;;14.70;99.90;;;;;;5015925;28;20468;-87
2021/10/05 12:28:39;;;;;;;2.15;2.05;;;14.50;99.90;;;;;;5033473;28;20497;-87
2021/10/05 12:31:16;;;;;;;1.40;1.30;;;14.50;99.90;;;;;;5016272;28;20057;-87
2021/10/05 12:34:06;;;;;;;1.30;1.30;;;14.50;99.90;;;;;;5016287;28;20045;-87
2021/10/05 12:36:35;;;;;;;1.48;1.45;;;14.60;99.90;;;;;;5019627;28;20049;-85
2021/10/05 12:39:10;;;;;;;1.35;1.35;;;14.80;99.90;;;;;;5019300;28;20055;-87
2021/10/05 12:41:37;;;;;;;1.30;1.20;;;15.00;99.90;;;;;;5019936;28;20051;-87
2021/10/05 12:44:19;;;;;;;1.23;1.15;;;15.20;99.90;;;;;;5020189;28;20465;-87
2021/10/05 12:46:58;;;;;;;1.50;1.40;;;15.10;99.90;;;;;;5037933;28;20049;-88